createdAt,value
2022-09-27T00:01:13.625Z,8.57
2022-09-27T00:03:41.179Z,6.47
2022-09-27T00:06:20.920Z,6.25
2022-09-27T00:08:47.625Z,9.27
2022-09-27T00:11:35.600Z,6.32
2022-09-27T00:14:02.792Z,6.53
2022-09-27T00:16:31.845Z,11.32
2022-09-27T00:19:00.332Z,9.20
2022-09-27T00:21:27.197Z,5.95
2022-09-27T00:23:54.237Z,10.25
2022-09-27T00:26:21.102Z,6.40
2022-09-27T00:28:47.700Z,4.88
2022-09-27T00:31:29.820Z,9.63
2022-09-27T00:33:59.085Z,4.45
2022-09-27T00:36:27.621Z,6.97
2022-09-27T00:38:55.340Z,4.63
2022-09-27T00:41:26.145Z,5.72
2022-09-27T00:43:55.399Z,5.88
2022-09-27T00:46:31.746Z,6.95
2022-09-27T00:49:17.565Z,7.30
2022-09-27T00:51:48.134Z,5.60
2022-09-27T00:54:17.343Z,5.30
2022-09-27T00:56:45.418Z,5.28
2022-09-27T00:59:19.501Z,4.95
2022-09-27T01:01:46.534Z,6.35
2022-09-27T01:04:18.307Z,5.72
2022-09-27T01:06:45.451Z,6.82
2022-09-27T01:09:12.904Z,6.38
2022-09-27T01:11:57.920Z,6.90
2022-09-27T01:15:13.870Z,5.25
2022-09-27T01:18:11.270Z,6.22
2022-09-27T01:21:15.589Z,4.32
2022-09-27T01:24:00.377Z,6.75
2022-09-27T01:27:12.880Z,4.93
2022-09-27T01:30:20.631Z,4.15
2022-09-27T01:32:56.437Z,5.50
2022-09-27T01:36:06.303Z,3.53
2022-09-27T01:39:10.248Z,7.13
2022-09-27T01:41:53.659Z,4.13
2022-09-27T01:44:41.498Z,5.30
2022-09-27T01:47:15.305Z,4.50
2022-09-27T01:49:53.184Z,6.10
2022-09-27T01:52:27.718Z,3.38
2022-09-27T01:54:58.867Z,4.00
2022-09-27T01:57:31.401Z,2.60
2022-09-27T02:00:05.828Z,3.38
2022-09-27T02:02:36.699Z,2.88
2022-09-27T02:05:07.290Z,3.13
2022-09-27T02:07:44.638Z,4.10
2022-09-27T02:10:18.179Z,5.78
2022-09-27T02:12:57.478Z,3.60
2022-09-27T02:15:27.019Z,2.67
2022-09-27T02:18:13.767Z,3.70
2022-09-27T02:20:43.571Z,2.47
2022-09-27T02:23:55.861Z,3.53
2022-09-27T02:26:36.087Z,3.67
2022-09-27T02:29:17.410Z,3.03
2022-09-27T02:31:44.307Z,3.40
2022-09-27T02:34:24.045Z,2.53
2022-09-27T02:36:53.530Z,2.30
2022-09-27T02:39:21.005Z,3.85
2022-09-27T02:41:47.845Z,2.20
2022-09-27T02:44:17.275Z,3.42
2022-09-27T02:47:38.439Z,2.50
2022-09-27T02:50:40.047Z,3.85
2022-09-27T02:53:18.086Z,8.50
2022-09-27T02:56:31.705Z,15.25
2022-09-27T02:59:28.661Z,51.45
2022-09-27T03:02:15.996Z,10.82
2022-09-27T03:04:54.340Z,6.63
2022-09-27T03:07:22.294Z,5.55
2022-09-27T03:09:54.035Z,5.45
2022-09-27T03:12:25.972Z,7.00
2022-09-27T03:15:01.528Z,19.25
2022-09-27T03:17:28.245Z,4.40
2022-09-27T03:19:56.416Z,3.63
2022-09-27T03:22:23.130Z,6.15
2022-09-27T03:24:49.830Z,13.27
2022-09-27T03:27:16.551Z,5.25
2022-09-27T03:29:43.188Z,5.53
2022-09-27T03:32:10.289Z,8.05
2022-09-27T03:34:37.013Z,3.85
2022-09-27T03:37:03.701Z,6.35
2022-09-27T03:39:30.559Z,3.75
2022-09-27T03:41:57.546Z,3.47
2022-09-27T03:44:24.278Z,3.08
2022-09-27T03:46:50.977Z,8.60
2022-09-27T03:49:17.648Z,5.15
2022-09-27T03:51:44.361Z,4.68
2022-09-27T03:54:11.118Z,4.95
2022-09-27T03:56:37.990Z,4.75
2022-09-27T03:59:04.700Z,6.30
2022-09-27T04:01:31.474Z,6.80
2022-09-27T04:03:58.305Z,3.53
2022-09-27T04:06:27.085Z,5.82
2022-09-27T04:08:54.202Z,6.30
2022-09-27T04:11:21.590Z,6.43
2022-09-27T04:13:49.226Z,10.80
2022-09-27T04:16:16.619Z,6.85
2022-09-27T04:18:43.741Z,7.65
2022-09-27T04:21:10.617Z,3.92
2022-09-27T04:23:37.318Z,9.40
2022-09-27T04:26:04.138Z,6.00
2022-09-27T04:28:31.852Z,13.50
2022-09-27T04:30:58.606Z,14.05
2022-09-27T04:33:25.412Z,5.35
2022-09-27T04:36:10.405Z,5.95
2022-09-27T04:38:37.012Z,4.13
2022-09-27T04:41:03.805Z,6.85
2022-09-27T04:43:30.818Z,3.88
2022-09-27T04:45:57.570Z,4.95
2022-09-27T04:48:24.607Z,6.03
2022-09-27T04:50:58.896Z,11.95
2022-09-27T04:53:25.983Z,4.95
2022-09-27T04:55:54.500Z,2.78
2022-09-27T04:58:22.277Z,3.80
2022-09-27T05:00:51.754Z,3.33
2022-09-27T05:03:19.458Z,5.07
2022-09-27T05:05:46.181Z,5.95
2022-09-27T05:08:12.965Z,8.07
2022-09-27T05:10:39.587Z,5.30
2022-09-27T05:13:06.621Z,4.47
2022-09-27T05:15:34.443Z,8.63
2022-09-27T05:18:01.130Z,4.80
2022-09-27T05:20:28.053Z,4.45
2022-09-27T05:22:54.778Z,11.45
2022-09-27T05:25:21.421Z,3.17
2022-09-27T05:27:49.402Z,4.25
2022-09-27T05:30:16.132Z,4.85
2022-09-27T05:32:48.857Z,2.80
2022-09-27T05:35:17.274Z,3.13
2022-09-27T05:37:43.963Z,3.70
2022-09-27T05:40:29.317Z,3.40
2022-09-27T05:42:57.687Z,4.88
2022-09-27T05:45:25.382Z,6.00
2022-09-27T05:47:54.126Z,4.68
2022-09-27T05:50:20.819Z,5.18
2022-09-27T05:52:48.201Z,6.53
2022-09-27T05:55:15.454Z,16.52
2022-09-27T05:57:42.170Z,11.70
2022-09-27T06:00:10.521Z,9.15
2022-09-27T06:02:37.288Z,12.00
2022-09-27T06:05:04.161Z,11.00
2022-09-27T06:07:32.163Z,19.27
2022-09-27T06:09:58.848Z,11.48
2022-09-27T06:12:25.486Z,16.60
2022-09-27T06:14:52.124Z,13.02
2022-09-27T06:17:18.778Z,13.45
2022-09-27T06:19:47.694Z,12.43
2022-09-27T06:22:14.530Z,11.15
2022-09-27T06:24:41.751Z,20.10
2022-09-27T06:27:08.475Z,13.52
2022-09-27T06:29:35.273Z,13.75
2022-09-27T06:32:02.387Z,13.20
2022-09-27T06:34:29.026Z,11.57
2022-09-27T06:36:57.234Z,14.95
2022-09-27T06:39:23.889Z,10.18
2022-09-27T06:41:56.483Z,9.73
2022-09-27T06:44:24.421Z,10.00
2022-09-27T06:46:52.962Z,13.57
2022-09-27T06:49:20.167Z,10.13
2022-09-27T06:51:46.815Z,11.93
2022-09-27T06:54:13.450Z,12.95
2022-09-27T06:56:40.411Z,8.80
2022-09-27T06:59:25.357Z,11.23
2022-09-27T07:01:52.916Z,10.07
2022-09-27T07:04:19.749Z,11.15
2022-09-27T07:06:46.456Z,9.20
2022-09-27T07:09:13.237Z,8.50
2022-09-27T07:11:40.255Z,6.30
2022-09-27T07:14:08.177Z,5.32
2022-09-27T07:16:34.991Z,8.27
2022-09-27T07:19:02.193Z,4.95
2022-09-27T07:21:28.903Z,8.65
2022-09-27T07:23:55.628Z,7.05
2022-09-27T07:26:22.824Z,9.13
2022-09-27T07:28:49.535Z,8.40
2022-09-27T07:31:17.279Z,8.23
2022-09-27T07:33:44.086Z,7.40
2022-09-27T07:36:12.064Z,7.60
2022-09-27T07:38:38.784Z,5.82
2022-09-27T07:41:07.328Z,5.78
2022-09-27T07:43:34.290Z,4.50
2022-09-27T07:46:01.057Z,5.22
2022-09-27T07:48:28.322Z,4.03
2022-09-27T07:50:55.008Z,5.32
2022-09-27T07:53:21.728Z,3.30
2022-09-27T07:55:53.245Z,3.60
2022-09-27T07:58:20.995Z,10.27
2022-09-27T08:00:47.836Z,3.20
2022-09-27T08:03:16.255Z,3.50
2022-09-27T08:05:47.457Z,4.95
2022-09-27T08:08:16.458Z,4.15
2022-09-27T08:10:44.441Z,3.00
2022-09-27T08:13:11.780Z,3.33
2022-09-27T08:15:41.589Z,3.15
2022-09-27T08:18:09.611Z,3.10
2022-09-27T08:20:36.395Z,3.05
2022-09-27T08:23:04.338Z,3.65
2022-09-27T08:25:31.258Z,2.42
2022-09-27T08:27:59.810Z,3.05
2022-09-27T08:30:27.639Z,2.63
2022-09-27T08:32:58.377Z,2.03
2022-09-27T08:35:25.478Z,5.45
2022-09-27T08:37:57.293Z,2.28
2022-09-27T08:40:31.672Z,1.67
2022-09-27T08:44:00.608Z,1.50
2022-09-27T08:47:14.067Z,2.45
2022-09-27T08:49:49.361Z,2.03
2022-09-27T08:52:27.567Z,2.83
2022-09-27T08:54:58.493Z,3.42
2022-09-27T08:57:26.156Z,1.48
2022-09-27T09:00:07.546Z,1.27
2022-09-27T09:02:36.375Z,2.58
2022-09-27T09:05:14.354Z,3.50
2022-09-27T09:07:54.493Z,4.13
2022-09-27T09:11:21.249Z,3.00
2022-09-27T09:14:23.816Z,2.35
2022-09-27T09:17:22.579Z,1.75
2022-09-27T09:20:17.640Z,1.05
2022-09-27T09:23:03.265Z,1.58
2022-09-27T09:25:57.793Z,2.45
2022-09-27T09:29:02.074Z,1.48
2022-09-27T09:31:43.918Z,1.05
2022-09-27T09:34:27.082Z,2.05
2022-09-27T09:37:08.677Z,3.92
2022-09-27T09:39:47.311Z,3.05
2022-09-27T09:42:18.647Z,0.45
2022-09-27T09:45:20.322Z,1.17
2022-09-27T09:48:20.935Z,1.40
2022-09-27T09:50:51.215Z,1.23
2022-09-27T09:54:01.959Z,2.97
2022-09-27T09:56:33.079Z,0.70
2022-09-27T09:59:05.067Z,1.10
2022-09-27T10:01:40.714Z,2.72
2022-09-27T10:04:07.540Z,2.97
2022-09-27T10:06:34.304Z,0.50
2022-09-27T10:09:01.055Z,0.80
2022-09-27T10:11:37.035Z,1.15
2022-09-27T10:14:03.757Z,0.68
2022-09-27T10:16:30.638Z,0.98
2022-09-27T10:19:02.336Z,1.52
2022-09-27T10:21:30.446Z,2.50
2022-09-27T10:24:25.574Z,1.10
2022-09-27T10:26:59.501Z,0.60
2022-09-27T10:29:36.998Z,1.90
2022-09-27T10:32:18.648Z,2.75
2022-09-27T10:34:45.567Z,4.78
2022-09-27T10:37:18.698Z,2.30
2022-09-27T10:39:47.654Z,0.85
2022-09-27T10:42:38.681Z,0.80
2022-09-27T10:45:34.909Z,4.63
2022-09-27T10:48:02.423Z,1.75
2022-09-27T10:50:49.592Z,1.67
2022-09-27T10:53:20.587Z,1.77
2022-09-27T10:55:50.119Z,1.52
2022-09-27T10:58:27.918Z,1.63
2022-09-27T11:01:09.634Z,3.15
2022-09-27T11:03:49.469Z,2.07
2022-09-27T11:06:45.335Z,2.17
2022-09-27T11:09:30.292Z,3.65
2022-09-27T11:12:10.361Z,5.30
2022-09-27T11:14:37.294Z,1.50
2022-09-27T11:17:46.917Z,1.73
2022-09-27T11:20:32.475Z,1.50
2022-09-27T11:23:43.668Z,1.13
2022-09-27T11:26:37.454Z,0.80
2022-09-27T11:30:08.612Z,0.85
2022-09-27T11:33:07.395Z,1.25
2022-09-27T11:36:01.005Z,3.20
2022-09-27T11:41:58.440Z,1.83
2022-09-27T11:47:38.391Z,2.30
2022-09-27T11:56:48.848Z,2.92
2022-09-27T12:00:02.702Z,2.67
2022-09-27T12:02:52.743Z,0.98
2022-09-27T12:06:13.511Z,0.57
2022-09-27T12:09:08.590Z,0.50
2022-09-27T12:11:50.516Z,0.40
2022-09-27T12:14:41.047Z,0.25
2022-09-27T12:17:16.354Z,1.35
2022-09-27T12:19:50.865Z,0.50
2022-09-27T12:22:46.723Z,1.70
2022-09-27T12:25:20.829Z,0.63
2022-09-27T12:27:58.155Z,0.80
2022-09-27T12:30:24.861Z,0.28
2022-09-27T12:33:23.378Z,1.27
2022-09-27T12:35:54.163Z,0.50
2022-09-27T12:38:35.905Z,0.30
2022-09-27T12:41:06.014Z,2.43
2022-09-27T12:43:32.765Z,0.77
2022-09-27T12:46:34.940Z,0.28
2022-09-27T12:49:26.770Z,1.10
2022-09-27T12:52:03.856Z,2.13
2022-09-27T12:55:00.775Z,0.43
2022-09-27T12:58:11.407Z,1.00
2022-09-27T13:01:09.259Z,0.40
2022-09-27T13:03:56.010Z,2.03
2022-09-27T13:06:58.608Z,6.90
2022-09-27T13:10:00.229Z,0.47
2022-09-27T13:12:29.454Z,0.40
2022-09-27T13:15:17.406Z,0.77
2022-09-27T13:17:56.392Z,3.72
2022-09-27T13:23:53.081Z,0.85
2022-09-27T13:35:24.396Z,0.38
2022-09-27T13:37:59.083Z,2.72
2022-09-27T13:40:30.976Z,2.30
2022-09-27T13:43:17.676Z,2.33
2022-09-27T13:45:57.334Z,3.63
2022-09-27T13:48:55.726Z,0.55
2022-09-27T13:51:56.762Z,0.43
2022-09-27T13:54:55.600Z,0.47
2022-09-27T13:57:56.786Z,0.52
2022-09-27T14:00:32.818Z,3.00
2022-09-27T14:03:46.051Z,1.08
2022-09-27T14:06:20.433Z,0.32
2022-09-27T14:08:53.433Z,1.30
2022-09-27T14:11:33.654Z,0.30
2022-09-27T14:14:02.250Z,0.85
2022-09-27T14:16:34.154Z,0.90
2022-09-27T14:19:02.583Z,1.67
2022-09-27T14:21:37.763Z,1.27
2022-09-27T14:24:42.504Z,0.40
2022-09-27T14:27:38.764Z,1.90
2022-09-27T14:30:15.578Z,2.28
2022-09-27T14:32:54.950Z,2.63
2022-09-27T14:35:46.844Z,1.55
2022-09-27T14:38:36.759Z,1.10
2022-09-27T14:41:06.745Z,2.80
2022-09-27T14:43:35.728Z,1.30
2022-09-27T14:46:07.076Z,1.45
2022-09-27T14:48:39.054Z,1.00
2022-09-27T14:51:20.951Z,1.85
2022-09-27T14:54:01.120Z,0.60
2022-09-27T14:56:33.953Z,0.40
2022-09-27T14:59:11.424Z,1.63
2022-09-27T15:01:40.072Z,0.50
2022-09-27T15:04:13.553Z,1.02
2022-09-27T15:06:40.986Z,0.47
2022-09-27T15:09:10.307Z,1.65
2022-09-27T15:11:39.553Z,0.68
2022-09-27T15:14:07.719Z,0.85
2022-09-27T15:16:34.622Z,1.15
2022-09-27T15:19:22.315Z,1.23
2022-09-27T15:21:50.074Z,2.28
2022-09-27T15:24:36.388Z,0.40
2022-09-27T15:27:03.505Z,1.08
2022-09-27T15:29:30.127Z,1.27
2022-09-27T15:32:03.502Z,0.65
2022-09-27T15:34:32.849Z,0.40
2022-09-27T15:37:03.521Z,1.08
2022-09-27T15:39:38.172Z,0.40
2022-09-27T15:42:19.547Z,0.57
2022-09-27T15:44:52.095Z,2.22
2022-09-27T15:47:54.055Z,0.80
2022-09-27T15:50:33.425Z,2.85
2022-09-27T15:53:02.853Z,0.73
2022-09-27T15:55:32.384Z,0.40
2022-09-27T15:58:20.361Z,0.43
2022-09-27T16:01:05.800Z,0.40
2022-09-27T16:03:33.244Z,0.60
2022-09-27T16:06:02.212Z,0.82
2022-09-27T16:08:33.330Z,0.30
2022-09-27T16:11:03.349Z,4.13
2022-09-27T16:13:32.927Z,0.60
2022-09-27T16:16:01.977Z,3.30
2022-09-27T16:18:30.770Z,0.40
2022-09-27T16:20:58.889Z,0.50
2022-09-27T16:23:25.934Z,2.75
2022-09-27T16:25:53.656Z,1.48
2022-09-27T16:28:20.562Z,0.43
2022-09-27T16:30:48.126Z,1.35
2022-09-27T16:33:15.233Z,1.33
2022-09-27T16:35:41.784Z,0.90
2022-09-27T16:38:08.480Z,3.85
2022-09-27T16:40:36.614Z,11.95
2022-09-27T16:43:07.081Z,18.05
2022-09-27T16:45:36.452Z,14.20
2022-09-27T16:48:03.564Z,4.40
2022-09-27T16:50:48.759Z,5.15
2022-09-27T16:53:15.501Z,4.65
2022-09-27T16:55:42.296Z,4.38
2022-09-27T16:58:08.949Z,4.93
2022-09-27T17:00:35.879Z,4.72
2022-09-27T17:03:02.632Z,4.30
2022-09-27T17:05:29.290Z,4.45
2022-09-27T17:07:55.997Z,5.75
2022-09-27T17:10:23.227Z,3.67
2022-09-27T17:12:50.253Z,5.88
2022-09-27T17:15:17.834Z,6.40
2022-09-27T17:17:45.361Z,4.65
2022-09-27T17:20:12.705Z,4.15
2022-09-27T17:22:39.247Z,4.95
2022-09-27T17:25:06.287Z,5.72
2022-09-27T17:27:32.883Z,5.40
2022-09-27T17:29:59.607Z,8.40
2022-09-27T17:32:26.457Z,3.13
2022-09-27T17:34:53.310Z,4.68
2022-09-27T17:37:19.963Z,2.03
2022-09-27T17:39:46.543Z,4.00
2022-09-27T17:42:13.266Z,1.95
2022-09-27T17:44:40.126Z,3.03
2022-09-27T17:47:25.350Z,3.72
2022-09-27T17:50:10.631Z,5.63
2022-09-27T17:52:37.550Z,3.47
2022-09-27T17:55:04.790Z,6.35
2022-09-27T17:57:31.858Z,2.40
2022-09-27T17:59:58.487Z,3.22
2022-09-27T18:02:25.656Z,3.42
2022-09-27T18:04:52.489Z,3.80
2022-09-27T18:07:19.867Z,2.65
2022-09-27T18:09:46.630Z,2.45
2022-09-27T18:12:13.761Z,3.55
2022-09-27T18:14:40.447Z,4.07
2022-09-27T18:17:07.152Z,3.53
2022-09-27T18:19:33.959Z,7.05
2022-09-27T18:22:00.872Z,6.25
2022-09-27T18:24:27.580Z,5.32
2022-09-27T18:26:55.818Z,46.50
2022-09-27T18:29:23.146Z,59.97
2022-09-27T18:31:49.980Z,59.65
2022-09-27T18:34:20.023Z,90.00
2022-09-27T18:36:46.875Z,47.72
2022-09-27T18:39:17.541Z,67.32
2022-09-27T18:41:45.328Z,79.60
2022-09-27T18:44:13.956Z,29.80
2022-09-27T18:46:40.658Z,18.80
2022-09-27T18:49:10.776Z,36.88
2022-09-27T18:51:41.984Z,13.13
2022-09-27T18:54:14.336Z,13.23
2022-09-27T18:56:41.510Z,25.80
2022-09-27T18:59:09.964Z,13.23
2022-09-27T19:01:39.752Z,38.38
2022-09-27T19:04:09.026Z,50.88
2022-09-27T19:06:37.094Z,24.42
2022-09-27T19:09:05.039Z,17.65
2022-09-27T19:11:31.678Z,20.70
2022-09-27T19:13:58.965Z,26.88
2022-09-27T19:16:27.179Z,27.33
2022-09-27T19:18:54.555Z,21.30
2022-09-27T19:21:27.151Z,70.25
2022-09-27T19:26:22.771Z,68.22
2022-09-27T19:28:50.418Z,27.30
2022-09-27T19:31:20.382Z,6.25
2022-09-27T19:33:47.593Z,3.63
2022-09-27T19:36:16.894Z,6.97
2022-09-27T19:38:44.123Z,3.17
2022-09-27T19:41:13.395Z,3.22
2022-09-27T19:43:40.852Z,4.72
2022-09-27T19:46:15.176Z,3.35
2022-09-27T19:48:43.558Z,4.50
2022-09-27T19:51:15.143Z,1.33
2022-09-27T19:53:41.976Z,1.53
2022-09-27T19:56:10.326Z,1.85
2022-09-27T19:58:39.472Z,0.90
2022-09-27T20:01:07.640Z,2.70
2022-09-27T20:03:36.434Z,0.88
2022-09-27T20:06:06.973Z,2.30
2022-09-27T20:08:33.947Z,4.07
2022-09-27T20:11:20.504Z,3.72
2022-09-27T20:13:48.078Z,1.65
2022-09-27T20:16:20.612Z,0.93
2022-09-27T20:21:16.700Z,2.65
2022-09-27T20:23:43.681Z,3.08
2022-09-27T20:26:14.776Z,3.22
2022-09-27T20:28:43.925Z,1.25
2022-09-27T20:31:12.606Z,1.27
2022-09-27T20:33:42.275Z,1.83
2022-09-27T20:36:14.085Z,1.40
2022-09-27T20:38:42.121Z,5.90
2022-09-27T20:41:10.096Z,1.77
2022-09-27T20:43:37.438Z,2.25
2022-09-27T20:46:11.126Z,1.58
2022-09-27T20:48:38.476Z,2.05
2022-09-27T20:51:06.517Z,1.80
2022-09-27T20:53:34.050Z,6.80
2022-09-27T20:56:04.707Z,3.53
2022-09-27T20:58:32.493Z,1.15
2022-09-27T21:01:05.950Z,1.80
2022-09-27T21:03:32.729Z,3.88
2022-09-27T21:05:59.559Z,2.33
2022-09-27T21:08:30.148Z,2.28
2022-09-27T21:11:04.557Z,1.50
2022-09-27T21:13:31.102Z,1.48
2022-09-27T21:16:03.112Z,2.85
2022-09-27T21:18:30.338Z,1.90
2022-09-27T21:21:01.532Z,1.20
2022-09-27T21:23:32.199Z,3.15
2022-09-27T21:26:04.762Z,1.25
2022-09-27T21:31:01.804Z,3.90
2022-09-27T21:33:28.490Z,1.02
2022-09-27T21:35:55.042Z,4.15
2022-09-27T21:38:21.886Z,4.57
2022-09-27T21:40:55.944Z,2.33
2022-09-27T21:43:34.169Z,4.90
2022-09-27T21:46:02.601Z,1.13
2022-09-27T21:48:30.829Z,3.38
2022-09-27T21:51:25.167Z,1.48
2022-09-27T21:53:57.092Z,3.47
2022-09-27T21:56:25.925Z,1.13
2022-09-27T21:58:52.785Z,1.05
2022-09-27T22:01:24.696Z,1.67
2022-09-27T22:03:52.694Z,1.58
2022-09-27T22:06:21.219Z,0.68
2022-09-27T22:08:49.018Z,1.30
2022-09-27T22:11:18.663Z,1.02
2022-09-27T22:13:45.765Z,0.68
2022-09-27T22:16:14.910Z,4.18
2022-09-27T22:18:46.475Z,2.33
2022-09-27T22:21:16.230Z,1.33
2022-09-27T22:23:43.062Z,0.45
2022-09-27T22:26:29.026Z,1.00
2022-09-27T22:28:56.220Z,0.50
2022-09-27T22:31:23.450Z,1.98
2022-09-27T22:33:52.270Z,0.63
2022-09-27T22:36:19.076Z,0.45
2022-09-27T22:38:45.668Z,0.40
2022-09-27T22:41:12.389Z,0.63
2022-09-27T22:43:39.964Z,0.98
2022-09-27T22:46:07.082Z,0.52
2022-09-27T22:48:34.326Z,0.50
2022-09-27T22:51:01.310Z,0.63
2022-09-27T22:53:29.327Z,0.70
2022-09-27T22:56:07.590Z,0.40
2022-09-27T22:58:36.262Z,0.75
2022-09-27T23:01:24.671Z,0.50
2022-09-27T23:03:52.969Z,3.25
2022-09-27T23:06:21.265Z,0.30
2022-09-27T23:08:48.352Z,1.23
2022-09-27T23:11:19.837Z,0.30
2022-09-27T23:13:48.109Z,0.50
2022-09-27T23:16:17.269Z,0.38
2022-09-27T23:18:44.435Z,0.98
2022-09-27T23:21:13.034Z,0.85
2022-09-27T23:23:42.103Z,0.93
2022-09-27T23:26:11.583Z,0.30
2022-09-27T23:28:38.815Z,0.30
2022-09-27T23:31:08.145Z,0.63
2022-09-27T23:33:36.842Z,1.38
2022-09-27T23:36:04.846Z,1.75
2022-09-27T23:38:32.692Z,2.40
2022-09-27T23:41:00.262Z,0.40
2022-09-27T23:43:27.387Z,0.52
2022-09-27T23:45:56.047Z,0.40
2022-09-27T23:48:24.565Z,0.40
2022-09-27T23:50:52.106Z,0.40
2022-09-27T23:53:20.356Z,0.30
2022-09-27T23:55:48.558Z,0.57
2022-09-27T23:58:15.883Z,0.22
